Time;durP1;ratioP1;P1;durP2;ratioP2;P2;SDS_P1;SDS_P2;PMS_P1;PMS_P2;Temp;Humidity;BMP_temperature;BMP_pressure;BME280_temperature;BME280_humidity;BME280_pressure;Samples;Min_cycle;Max_cycle;Signal;HPM_P1;HPM_P2
2021/11/10 00:00:05;;;;;;;6.78;3.25;;;1.30;99.90;;;;;;4978818;28;20054;-67
2021/11/10 00:02:32;;;;;;;10.27;2.80;;;1.30;99.90;;;;;;4960870;28;20030;-67
2021/11/10 00:04:59;;;;;;;6.80;3.17;;;1.40;99.90;;;;;;4981714;28;20030;-67
2021/11/10 00:07:27;;;;;;;5.55;2.97;;;1.40;99.90;;;;;;4982544;28;20078;-67
2021/11/10 00:09:55;;;;;;;6.47;2.75;;;1.40;99.90;;;;;;4964736;28;20018;-67
2021/11/10 00:12:23;;;;;;;7.25;3.53;;;1.40;99.90;;;;;;4982147;28;20466;-67
2021/11/10 00:14:50;;;;;;;6.30;3.60;;;1.40;99.90;;;;;;4982554;28;20034;-67
2021/11/10 00:17:17;;;;;;;9.85;4.10;;;1.30;99.90;;;;;;4981899;28;20312;-67
2021/11/10 00:19:45;;;;;;;7.70;3.42;;;1.30;99.90;;;;;;4980816;28;20089;-67
2021/11/10 00:22:13;;;;;;;8.75;3.78;;;1.30;99.90;;;;;;4980812;28;20018;-67
2021/11/10 00:24:40;;;;;;;8.88;3.65;;;1.30;99.90;;;;;;4964333;28;20061;-67
2021/11/10 00:27:07;;;;;;;9.05;3.40;;;1.30;99.90;;;;;;4981267;28;20304;-67
2021/11/10 00:29:36;;;;;;;5.13;3.05;;;1.20;99.90;;;;;;4980823;28;20022;-67
2021/11/10 00:32:04;;;;;;;9.50;3.33;;;1.20;99.90;;;;;;4963767;28;20389;-67
2021/11/10 00:34:31;;;;;;;7.35;3.40;;;1.20;99.90;;;;;;4980811;28;20323;-67
2021/11/10 00:36:59;;;;;;;6.57;3.10;;;1.10;99.90;;;;;;4963334;28;20070;-67
2021/11/10 00:39:26;;;;;;;9.63;3.72;;;1.10;99.90;;;;;;4981169;28;20023;-67
2021/11/10 00:41:54;;;;;;;11.55;3.20;;;1.10;99.90;;;;;;4981327;28;20450;-67
2021/11/10 00:44:21;;;;;;;9.15;3.30;;;1.10;99.90;;;;;;4981240;28;20035;-67
2021/11/10 00:46:48;;;;;;;8.98;4.07;;;1.10;99.90;;;;;;4981266;28;20047;-67
2021/11/10 00:49:16;;;;;;;5.15;2.85;;;1.10;99.90;;;;;;4981188;28;20022;-67
2021/11/10 00:51:43;;;;;;;7.47;3.13;;;1.10;99.90;;;;;;4964034;28;20030;-67
2021/11/10 00:54:12;;;;;;;5.38;2.80;;;1.10;99.90;;;;;;4981862;28;20054;-67
2021/11/10 00:56:40;;;;;;;6.63;3.40;;;1.10;99.90;;;;;;4981634;28;20023;-67
2021/11/10 00:59:07;;;;;;;5.53;2.95;;;1.00;99.90;;;;;;4980972;28;20467;-67
2021/11/10 01:01:35;;;;;;;7.50;2.42;;;1.00;99.90;;;;;;4980683;28;20027;-67
2021/11/10 01:04:02;;;;;;;8.07;3.03;;;1.00;99.90;;;;;;4962950;28;20438;-67
2021/11/10 01:06:34;;;;;;;7.97;3.05;;;1.00;99.90;;;;;;4963065;28;20031;-67
2021/11/10 01:09:01;;;;;;;8.63;3.10;;;1.10;99.90;;;;;;4980521;28;20015;-67
2021/11/10 01:11:28;;;;;;;4.85;2.83;;;1.10;99.90;;;;;;4979942;28;20058;-67
2021/11/10 01:13:55;;;;;;;9.48;3.30;;;1.20;99.90;;;;;;4962831;28;20057;-67
2021/11/10 01:16:23;;;;;;;6.97;3.17;;;1.20;99.90;;;;;;4978880;28;20319;-67
2021/11/10 01:18:50;;;;;;;10.65;3.05;;;1.20;99.90;;;;;;4979796;28;20027;-67
2021/11/10 01:21:18;;;;;;;5.68;2.40;;;1.20;99.90;;;;;;4980292;28;20034;-67
2021/11/10 01:23:45;;;;;;;7.30;3.00;;;1.10;99.90;;;;;;4980543;28;20050;-67
2021/11/10 01:26:12;;;;;;;6.00;3.13;;;1.10;99.90;;;;;;4963384;28;20019;-67
2021/11/10 01:28:40;;;;;;;8.32;2.50;;;1.10;99.90;;;;;;4980834;28;20016;-67
2021/11/10 01:31:07;;;;;;;6.78;3.75;;;1.00;99.90;;;;;;4980517;28;20146;-67
2021/11/10 01:33:35;;;;;;;10.10;2.72;;;1.00;99.90;;;;;;4963444;28;20030;-67
2021/11/10 01:36:02;;;;;;;9.95;2.90;;;1.00;99.90;;;;;;4980414;28;20047;-67
2021/11/10 01:38:31;;;;;;;8.40;2.63;;;0.90;99.90;;;;;;4980677;28;20045;-67
2021/11/10 01:40:59;;;;;;;6.63;3.00;;;0.90;99.90;;;;;;4980351;28;20405;-67
2021/11/10 01:43:27;;;;;;;6.30;2.35;;;0.90;99.90;;;;;;4979833;28;20408;-67
2021/11/10 01:45:58;;;;;;;4.47;2.53;;;0.90;99.90;;;;;;4979240;28;20126;-67
2021/11/10 01:48:26;;;;;;;7.35;3.20;;;0.90;99.90;;;;;;4979696;28;20019;-67
2021/11/10 01:50:53;;;;;;;4.95;2.38;;;0.90;99.90;;;;;;4961975;28;20343;-67
2021/11/10 01:53:20;;;;;;;4.47;2.20;;;0.80;99.90;;;;;;4979667;28;20029;-67
2021/11/10 01:55:48;;;;;;;5.15;2.25;;;0.80;99.90;;;;;;4979069;28;20022;-67
2021/11/10 01:58:15;;;;;;;6.47;2.83;;;0.70;99.90;;;;;;4979053;28;20027;-67
2021/11/10 02:00:44;;;;;;;8.75;3.03;;;0.70;99.90;;;;;;4979001;28;20066;-67
2021/11/10 02:03:12;;;;;;;8.68;2.53;;;0.70;99.90;;;;;;4979616;28;20039;-67
2021/11/10 02:05:40;;;;;;;5.75;2.30;;;0.70;99.90;;;;;;4962185;28;20133;-67
2021/11/10 02:08:08;;;;;;;6.65;2.85;;;0.70;99.90;;;;;;4962749;28;20077;-67
2021/11/10 02:10:36;;;;;;;6.75;2.85;;;0.70;99.90;;;;;;4979743;28;20047;-67
2021/11/10 02:13:05;;;;;;;6.97;2.42;;;0.60;99.90;;;;;;4979778;28;20022;-67
2021/11/10 02:15:34;;;;;;;8.55;2.70;;;0.60;99.90;;;;;;4979714;28;20034;-67
2021/11/10 02:18:02;;;;;;;6.45;2.35;;;0.60;99.90;;;;;;4980716;28;20311;-67
2021/11/10 02:20:33;;;;;;;5.30;2.30;;;0.50;99.90;;;;;;4979715;28;20038;-67
2021/11/10 02:23:02;;;;;;;8.85;2.67;;;0.50;99.90;;;;;;4979783;28;20031;-67
2021/11/10 02:25:29;;;;;;;10.55;2.53;;;0.50;99.90;;;;;;4979084;28;20109;-67
2021/11/10 02:28:01;;;;;;;9.00;2.50;;;0.40;99.90;;;;;;4961163;28;20019;-67
2021/11/10 02:30:29;;;;;;;6.50;2.28;;;0.40;99.90;;;;;;4979044;28;20014;-67
2021/11/10 02:33:01;;;;;;;4.97;2.83;;;0.40;99.90;;;;;;4978730;28;20030;-67
2021/11/10 02:35:31;;;;;;;6.53;2.40;;;0.40;99.90;;;;;;4978194;28;20085;-67
2021/11/10 02:38:05;;;;;;;5.60;2.17;;;0.40;99.90;;;;;;4978244;28;20080;-67
2021/11/10 02:40:34;;;;;;;5.60;2.05;;;0.40;99.90;;;;;;4978854;28;20051;-67
2021/11/10 02:43:01;;;;;;;6.80;2.25;;;0.30;99.90;;;;;;4978289;28;20058;-67
2021/11/10 02:45:29;;;;;;;9.02;2.40;;;0.30;99.90;;;;;;4977808;28;20352;-67
2021/11/10 02:47:58;;;;;;;9.40;2.50;;;0.30;99.90;;;;;;4978875;28;20031;-67
2021/11/10 02:50:32;;;;;;;6.00;2.30;;;0.30;99.90;;;;;;4962289;28;20054;-67
2021/11/10 02:53:00;;;;;;;7.03;2.28;;;0.30;99.90;;;;;;4979357;28;20023;-67
2021/11/10 02:55:28;;;;;;;8.15;2.10;;;0.20;99.90;;;;;;4979002;28;20027;-67
2021/11/10 02:57:56;;;;;;;3.72;2.00;;;0.20;99.90;;;;;;4979233;28;20110;-67
2021/11/10 03:00:25;;;;;;;7.95;2.50;;;0.20;99.90;;;;;;4978994;28;20034;-67
2021/11/10 03:02:54;;;;;;;4.97;2.10;;;0.10;99.90;;;;;;4979373;28;20037;-67
2021/11/10 03:05:23;;;;;;;5.55;2.80;;;0.10;99.90;;;;;;4978729;28;20033;-67
2021/11/10 03:07:51;;;;;;;5.53;2.90;;;0.10;99.90;;;;;;4979410;28;20026;-67
2021/11/10 03:10:19;;;;;;;5.15;2.55;;;0.10;99.90;;;;;;4960678;28;20027;-67
2021/11/10 03:12:46;;;;;;;9.43;2.45;;;0.10;99.90;;;;;;4977722;28;20026;-67
2021/11/10 03:15:14;;;;;;;5.55;2.58;;;0.00;99.90;;;;;;4977786;28;20026;-67
2021/11/10 03:17:42;;;;;;;4.50;2.15;;;0.10;99.90;;;;;;4977780;28;20057;-67
2021/11/10 03:20:10;;;;;;;5.75;2.42;;;0.10;99.90;;;;;;4977751;28;20023;-67
2021/11/10 03:22:38;;;;;;;8.52;2.60;;;0.00;99.90;;;;;;4977724;28;20030;-67
2021/11/10 03:25:06;;;;;;;5.03;2.47;;;0.10;99.90;;;;;;4977755;28;20023;-67
2021/11/10 03:27:33;;;;;;;8.02;2.70;;;0.00;99.90;;;;;;4960857;28;20330;-67
2021/11/10 03:30:03;;;;;;;7.53;2.83;;;0.00;99.90;;;;;;4960555;28;20023;-67
2021/11/10 03:32:31;;;;;;;6.57;3.70;;;0.00;99.90;;;;;;4978907;28;20078;-67
2021/11/10 03:34:59;;;;;;;6.70;2.80;;;0.00;99.90;;;;;;4978627;28;20023;-67
2021/11/10 03:37:26;;;;;;;7.40;2.90;;;0.00;99.90;;;;;;4978413;28;20086;-67
2021/11/10 03:39:54;;;;;;;6.68;2.83;;;0.00;99.90;;;;;;4964265;28;20037;-67
2021/11/10 03:42:22;;;;;;;4.97;2.20;;;0.00;99.90;;;;;;4982935;28;20066;-67
2021/11/10 03:44:50;;;;;;;6.30;3.13;;;0.00;99.90;;;;;;4982710;28;20034;-67
2021/11/10 03:47:17;;;;;;;6.13;2.78;;;-0.10;99.90;;;;;;4982901;28;20033;-67
2021/11/10 03:49:45;;;;;;;18.40;7.65;;;-0.10;99.90;;;;;;4982478;28;20021;-67
2021/11/10 03:52:14;;;;;;;9.13;6.22;;;-0.10;99.90;;;;;;4964985;28;20030;-67
2021/11/10 03:54:47;;;;;;;7.90;3.17;;;-0.10;99.90;;;;;;4982067;28;20057;-67
2021/11/10 03:57:15;;;;;;;7.47;3.28;;;-0.10;99.90;;;;;;4981136;28;20037;-67
2021/11/10 03:59:43;;;;;;;7.68;3.35;;;0.00;99.90;;;;;;4981289;28;20023;-67
2021/11/10 04:02:11;;;;;;;6.10;2.90;;;0.00;99.90;;;;;;4981725;28;20054;-67
2021/11/10 04:04:39;;;;;;;10.55;2.35;;;0.00;99.90;;;;;;4981206;28;20045;-67
2021/11/10 04:07:07;;;;;;;16.63;6.78;;;-0.10;99.90;;;;;;4981036;28;20027;-67
2021/11/10 04:09:35;;;;;;;7.82;3.65;;;0.00;99.90;;;;;;4981129;28;20323;-67
2021/11/10 04:12:03;;;;;;;10.35;3.05;;;0.00;99.90;;;;;;4981567;28;20025;-67
2021/11/10 04:14:30;;;;;;;4.85;2.63;;;0.00;99.90;;;;;;4981486;28;20426;-67
2021/11/10 04:16:57;;;;;;;9.60;3.15;;;0.00;99.90;;;;;;4981897;28;20449;-67
2021/11/10 04:19:25;;;;;;;5.50;2.65;;;-0.10;99.90;;;;;;4982044;28;20027;-67
2021/11/10 04:21:53;;;;;;;3.78;2.58;;;-0.10;99.90;;;;;;4981759;28;20081;-67
2021/11/10 04:24:20;;;;;;;7.70;2.75;;;-0.10;99.90;;;;;;4981678;28;20050;-67
2021/11/10 04:26:47;;;;;;;4.80;2.65;;;-0.10;99.90;;;;;;4964504;28;20023;-67
2021/11/10 04:29:15;;;;;;;6.57;2.45;;;-0.20;99.90;;;;;;4981636;28;20022;-67
2021/11/10 04:31:43;;;;;;;11.18;3.40;;;-0.20;99.90;;;;;;4981624;28;20030;-67
2021/11/10 04:34:11;;;;;;;6.85;2.60;;;-0.20;99.90;;;;;;4981510;28;20057;-67
2021/11/10 04:36:39;;;;;;;6.80;2.58;;;-0.20;99.90;;;;;;4980606;28;20030;-67
2021/11/10 04:39:06;;;;;;;5.38;2.83;;;-0.20;99.90;;;;;;4980437;28;20026;-67
2021/11/10 04:41:34;;;;;;;11.60;3.53;;;-0.20;99.90;;;;;;4981043;28;20031;-67
2021/11/10 04:44:01;;;;;;;8.15;2.28;;;-0.20;99.90;;;;;;4980590;28;20527;-67
2021/11/10 04:46:34;;;;;;;5.13;2.20;;;-0.20;99.90;;;;;;4980159;28;20078;-67
2021/11/10 04:49:02;;;;;;;5.63;2.20;;;-0.20;99.90;;;;;;4980495;28;20019;-67
2021/11/10 04:51:31;;;;;;;4.70;2.10;;;-0.20;99.90;;;;;;4980796;28;20069;-67
2021/11/10 04:54:04;;;;;;;5.90;2.88;;;-0.30;99.90;;;;;;4980479;28;20041;-67
2021/11/10 04:56:32;;;;;;;4.80;2.40;;;-0.30;99.90;;;;;;4980455;28;20316;-67
2021/11/10 04:58:59;;;;;;;9.23;2.78;;;-0.40;99.90;;;;;;4981446;28;20320;-67
2021/11/10 05:01:27;;;;;;;4.20;2.22;;;-0.40;99.90;;;;;;4981022;28;20320;-67
2021/11/10 05:03:55;;;;;;;6.85;2.50;;;-0.40;99.90;;;;;;4981005;28;20099;-67
2021/11/10 05:06:24;;;;;;;7.95;2.40;;;-0.40;99.90;;;;;;4963787;28;20327;-67
2021/11/10 05:08:52;;;;;;;6.80;2.30;;;-0.40;99.90;;;;;;4980965;28;20030;-67
2021/11/10 05:11:21;;;;;;;6.03;2.75;;;-0.40;99.90;;;;;;4980860;28;20023;-67
2021/11/10 05:13:49;;;;;;;9.50;3.00;;;-0.50;99.90;;;;;;4980999;28;20047;-67
2021/11/10 05:16:16;;;;;;;8.05;2.80;;;-0.40;99.90;;;;;;4963618;28;20027;-67
2021/11/10 05:18:44;;;;;;;5.50;2.05;;;-0.50;99.90;;;;;;4980063;28;20038;-67
2021/11/10 05:21:12;;;;;;;7.78;3.40;;;-0.50;99.90;;;;;;4980288;28;20050;-67
2021/11/10 05:23:39;;;;;;;8.82;2.90;;;-0.50;99.90;;;;;;4979921;28;20015;-67
2021/11/10 05:26:08;;;;;;;6.85;2.30;;;-0.50;99.90;;;;;;4979627;28;20107;-67
2021/11/10 05:28:35;;;;;;;5.88;2.78;;;-0.50;99.90;;;;;;4979658;28;20042;-67
2021/11/10 05:31:04;;;;;;;5.15;2.63;;;-0.50;99.90;;;;;;4962434;28;20074;-67
2021/11/10 05:33:31;;;;;;;6.82;2.55;;;-0.50;99.90;;;;;;4979518;28;20019;-67
2021/11/10 05:35:59;;;;;;;8.25;3.08;;;-0.50;99.90;;;;;;4963102;28;20019;-67
2021/11/10 05:38:26;;;;;;;6.88;2.90;;;-0.50;99.90;;;;;;4979465;28;20046;-67
2021/11/10 05:40:54;;;;;;;9.13;3.17;;;-0.50;99.90;;;;;;4980656;28;20363;-67
2021/11/10 05:43:21;;;;;;;8.18;2.88;;;-0.50;99.90;;;;;;4980284;28;20416;-67
2021/11/10 05:45:49;;;;;;;8.20;3.10;;;-0.50;99.90;;;;;;4980344;28;20348;-67
2021/11/10 05:48:16;;;;;;;5.13;2.58;;;-0.50;99.90;;;;;;4980833;28;20412;-67
2021/11/10 05:50:44;;;;;;;7.72;2.60;;;-0.50;99.90;;;;;;4980439;28;20114;-67
2021/11/10 05:53:13;;;;;;;9.23;2.42;;;-0.50;99.90;;;;;;4980170;28;20428;-67
2021/11/10 05:55:42;;;;;;;5.90;3.17;;;-0.50;99.90;;;;;;4980010;28;20502;-67
2021/11/10 05:58:11;;;;;;;6.22;2.80;;;-0.50;99.90;;;;;;4962983;28;20089;-67
2021/11/10 06:00:39;;;;;;;4.80;2.53;;;-0.50;99.90;;;;;;4979381;28;20030;-67
2021/11/10 06:03:06;;;;;;;7.20;2.47;;;-0.60;99.90;;;;;;4978577;28;20300;-67
2021/11/10 06:05:33;;;;;;;8.73;2.70;;;-0.60;99.90;;;;;;4978841;28;20371;-67
2021/11/10 06:08:02;;;;;;;5.20;2.65;;;-0.60;99.90;;;;;;4961770;28;20320;-67
2021/11/10 06:10:30;;;;;;;11.68;3.40;;;-0.70;99.90;;;;;;4979154;28;20089;-67
2021/11/10 06:12:57;;;;;;;10.15;2.95;;;-0.70;99.90;;;;;;4979326;28;20022;-67
2021/11/10 06:15:24;;;;;;;10.23;2.78;;;-0.70;99.90;;;;;;4979283;28;20077;-67
2021/11/10 06:17:53;;;;;;;7.07;3.03;;;-0.70;99.90;;;;;;4978683;28;20027;-67
2021/11/10 06:20:20;;;;;;;8.23;2.15;;;-0.70;99.90;;;;;;4978754;28;20030;-67
2021/11/10 06:22:49;;;;;;;5.32;2.75;;;-0.70;99.90;;;;;;4978706;28;20090;-68
2021/11/10 06:25:17;;;;;;;8.18;2.70;;;-0.70;99.90;;;;;;4979274;28;20081;-67
2021/11/10 06:27:45;;;;;;;12.60;2.60;;;-0.70;99.90;;;;;;4979393;28;20101;-67
2021/11/10 06:30:12;;;;;;;9.65;3.10;;;-0.70;99.90;;;;;;4979948;28;20023;-76
2021/11/10 06:32:40;;;;;;;10.90;3.13;;;-0.70;99.90;;;;;;4979950;28;20368;-68
2021/11/10 06:35:08;;;;;;;8.43;3.22;;;-0.70;99.90;;;;;;4979345;28;20379;-68
2021/11/10 06:37:36;;;;;;;7.05;3.67;;;-0.60;99.90;;;;;;4979307;28;20023;-67
2021/11/10 06:40:06;;;;;;;7.10;3.63;;;-0.60;99.90;;;;;;4979736;28;20026;-68
2021/11/10 06:42:33;;;;;;;8.10;3.17;;;-0.60;99.90;;;;;;4961952;28;20031;-68
2021/11/10 06:45:01;;;;;;;5.57;2.75;;;-0.60;99.90;;;;;;4978619;28;20055;-70
2021/11/10 06:47:29;;;;;;;10.15;2.88;;;-0.60;99.90;;;;;;4960987;28;20113;-67
2021/11/10 06:49:56;;;;;;;11.52;3.22;;;-0.60;99.90;;;;;;4960720;28;20022;-67
2021/11/10 06:52:24;;;;;;;8.23;3.00;;;-0.60;99.90;;;;;;4960946;28;20114;-67
2021/11/10 06:54:51;;;;;;;11.35;3.83;;;-0.60;99.90;;;;;;4978091;28;20023;-67
2021/11/10 06:57:20;;;;;;;10.18;3.10;;;-0.60;99.90;;;;;;4978567;28;20351;-67
2021/11/10 06:59:48;;;;;;;6.90;2.67;;;-0.50;99.90;;;;;;4977990;28;20029;-67
2021/11/10 07:02:16;;;;;;;10.07;3.17;;;-0.50;99.90;;;;;;4977990;28;20061;-67
2021/11/10 07:04:43;;;;;;;10.75;3.80;;;-0.50;99.90;;;;;;4977839;28;20034;-67
2021/11/10 07:07:11;;;;;;;7.30;2.83;;;-0.50;99.90;;;;;;4978613;28;20030;-67
2021/11/10 07:09:38;;;;;;;8.32;3.10;;;-0.50;99.90;;;;;;4979262;28;20407;-67
2021/11/10 07:12:06;;;;;;;9.02;3.53;;;-0.50;99.90;;;;;;4979234;28;20106;-67
2021/11/10 07:14:34;;;;;;;5.35;2.72;;;-0.40;99.90;;;;;;4978809;28;20023;-67
2021/11/10 07:17:03;;;;;;;9.98;5.18;;;-0.40;99.90;;;;;;4979217;28;20034;-70
2021/11/10 07:19:30;;;;;;;6.53;3.05;;;-0.40;99.90;;;;;;4978801;28;20026;-71
2021/11/10 07:21:57;;;;;;;6.93;3.55;;;-0.30;99.90;;;;;;4978921;28;20030;-71
2021/11/10 07:24:25;;;;;;;9.50;3.08;;;-0.30;99.90;;;;;;4961455;28;20030;-70
2021/11/10 07:26:53;;;;;;;9.73;3.40;;;-0.30;99.90;;;;;;4978505;28;20349;-69
2021/11/10 07:29:21;;;;;;;8.95;3.42;;;-0.30;99.90;;;;;;4977835;28;20023;-69
2021/11/10 07:31:48;;;;;;;9.60;3.50;;;-0.20;99.90;;;;;;4977543;28;20023;-69
2021/11/10 07:34:15;;;;;;;11.80;4.47;;;-0.20;99.90;;;;;;4977579;28;20430;-69
2021/11/10 07:36:43;;;;;;;11.45;3.60;;;-0.10;99.90;;;;;;4977618;28;20027;-69
2021/11/10 07:39:11;;;;;;;9.48;3.70;;;-0.10;99.90;;;;;;4977739;28;20031;-69
2021/11/10 07:41:38;;;;;;;9.52;3.83;;;-0.10;99.90;;;;;;4978042;28;20085;-69
2021/11/10 07:44:10;;;;;;;12.02;3.50;;;-0.10;99.90;;;;;;4960207;28;20031;-69
2021/11/10 07:46:38;;;;;;;12.38;4.05;;;-0.10;99.90;;;;;;4977072;28;20070;-69
2021/11/10 07:49:06;;;;;;;10.13;3.92;;;-0.10;99.90;;;;;;4977961;28;20404;-69
2021/11/10 07:51:33;;;;;;;15.60;3.70;;;-0.10;99.90;;;;;;4978840;28;20030;-69
2021/11/10 07:54:01;;;;;;;7.63;3.38;;;-0.10;99.90;;;;;;4961180;28;20029;-69
2021/11/10 07:56:28;;;;;;;8.60;4.03;;;-0.10;99.90;;;;;;4978626;28;20018;-69
2021/11/10 07:58:56;;;;;;;14.00;3.60;;;0.00;99.90;;;;;;4978971;28;20081;-69
2021/11/10 08:01:23;;;;;;;11.50;3.83;;;0.00;99.90;;;;;;4978813;28;20106;-70
2021/11/10 08:03:50;;;;;;;21.00;3.70;;;0.00;99.90;;;;;;4978241;28;20081;-69
2021/11/10 08:06:18;;;;;;;14.20;3.65;;;0.10;99.90;;;;;;4979182;28;20035;-70
2021/11/10 08:08:46;;;;;;;8.05;2.80;;;0.10;99.90;;;;;;4978456;28;20367;-69
2021/11/10 08:11:13;;;;;;;10.95;3.67;;;0.10;99.90;;;;;;4977526;28;20019;-68
2021/11/10 08:13:41;;;;;;;34.13;4.60;;;0.20;99.90;;;;;;4977553;28;20046;-68
2021/11/10 08:16:09;;;;;;;7.63;3.08;;;0.20;99.90;;;;;;4977728;28;20436;-68
2021/11/10 08:18:38;;;;;;;16.23;3.08;;;0.30;99.90;;;;;;4977598;28;20335;-68
2021/11/10 08:21:06;;;;;;;11.05;3.63;;;0.40;99.90;;;;;;4977925;28;20374;-68
2021/11/10 08:23:34;;;;;;;11.32;3.50;;;0.50;99.90;;;;;;4977446;28;20033;-68
2021/11/10 08:26:02;;;;;;;15.90;4.15;;;0.50;99.90;;;;;;4979919;28;20027;-68
2021/11/10 08:28:30;;;;;;;13.57;3.97;;;0.60;99.90;;;;;;4980784;28;20081;-68
2021/11/10 08:30:58;;;;;;;7.30;3.22;;;0.60;99.90;;;;;;4963464;28;20023;-68
2021/11/10 08:33:26;;;;;;;12.07;3.47;;;0.70;99.90;;;;;;4981793;28;20026;-68
2021/11/10 08:35:53;;;;;;;15.05;4.10;;;0.80;99.90;;;;;;4982043;28;20038;-68
2021/11/10 08:38:22;;;;;;;8.75;4.13;;;0.90;99.90;;;;;;4982227;28;20058;-68
2021/11/10 08:40:50;;;;;;;10.88;4.13;;;0.90;99.90;;;;;;4964250;28;20137;-68
2021/11/10 08:43:19;;;;;;;9.68;4.28;;;1.00;99.90;;;;;;4981371;28;20029;-67
2021/11/10 08:45:48;;;;;;;11.25;4.22;;;1.10;99.90;;;;;;4981036;28;20443;-68
2021/11/10 08:48:17;;;;;;;12.35;4.95;;;1.20;99.90;;;;;;4981289;28;20380;-68
2021/11/10 08:50:47;;;;;;;11.25;4.88;;;1.20;99.90;;;;;;4981245;28;20050;-68
2021/11/10 08:53:22;;;;;;;29.42;4.82;;;1.30;99.90;;;;;;4981111;28;20116;-68
2021/11/10 08:55:56;;;;;;;9.82;4.07;;;1.40;99.90;;;;;;4980356;28;20027;-68
2021/11/10 08:58:24;;;;;;;8.27;3.78;;;1.50;99.90;;;;;;4980353;28;20034;-68
2021/11/10 09:00:52;;;;;;;10.13;4.00;;;1.50;99.90;;;;;;4963386;28;20081;-68
2021/11/10 09:03:25;;;;;;;9.48;4.53;;;1.60;99.90;;;;;;4980629;28;20066;-67
2021/11/10 09:05:53;;;;;;;11.45;4.63;;;1.70;99.90;;;;;;4962848;28;20026;-68
2021/11/10 09:08:31;;;;;;;10.80;4.18;;;1.80;99.90;;;;;;4963071;28;20031;-67
2021/11/10 09:10:59;;;;;;;11.13;5.00;;;1.80;99.90;;;;;;4979976;28;20321;-68
2021/11/10 09:13:27;;;;;;;11.10;4.75;;;1.90;99.90;;;;;;4962818;28;20487;-68
2021/11/10 09:15:56;;;;;;;12.20;4.60;;;2.00;99.90;;;;;;4980371;28;20023;-68
2021/11/10 09:18:24;;;;;;;15.15;5.50;;;2.10;99.90;;;;;;4980835;28;20334;-68
2021/11/10 09:20:52;;;;;;;17.25;4.90;;;2.20;99.90;;;;;;4980721;28;20023;-67
2021/11/10 09:23:22;;;;;;;13.40;4.88;;;2.30;99.90;;;;;;4981204;28;20308;-68
2021/11/10 09:25:51;;;;;;;11.68;4.40;;;2.30;99.90;;;;;;4963451;28;20062;-68
2021/11/10 09:28:20;;;;;;;13.55;4.78;;;2.40;99.90;;;;;;4963550;28;20030;-67
2021/11/10 09:30:51;;;;;;;12.98;4.32;;;2.50;99.90;;;;;;4980790;28;20037;-68
2021/11/10 09:33:20;;;;;;;15.27;4.72;;;2.60;99.90;;;;;;4980932;28;20467;-68
2021/11/10 09:35:48;;;;;;;12.18;4.57;;;2.70;99.90;;;;;;4979310;28;20367;-68
2021/11/10 09:38:16;;;;;;;10.93;4.75;;;2.80;99.90;;;;;;4979850;28;20031;-68
2021/11/10 09:40:45;;;;;;;9.82;4.82;;;2.90;99.90;;;;;;4979391;28;20027;-68
2021/11/10 09:43:15;;;;;;;12.02;4.60;;;2.90;99.90;;;;;;4979955;28;20118;-68
2021/11/10 09:45:48;;;;;;;8.25;4.30;;;3.10;99.90;;;;;;4979234;28;20101;-68
2021/11/10 09:48:16;;;;;;;8.38;4.38;;;3.20;99.90;;;;;;4979898;28;20098;-68
2021/11/10 09:50:48;;;;;;;21.02;6.10;;;3.40;99.90;;;;;;4979289;28;20022;-68
2021/11/10 09:53:16;;;;;;;9.75;3.63;;;3.50;99.90;;;;;;4979010;28;20019;-68
2021/11/10 09:55:44;;;;;;;10.60;3.72;;;3.70;99.90;;;;;;4979096;28;20041;-68
2021/11/10 09:58:12;;;;;;;8.18;3.75;;;3.80;99.90;;;;;;4962132;28;20054;-68
2021/11/10 10:00:47;;;;;;;7.85;4.00;;;4.00;99.90;;;;;;4980494;28;20046;-68
2021/11/10 10:03:16;;;;;;;7.72;3.83;;;4.30;99.90;;;;;;4962656;28;20033;-69
2021/11/10 10:05:45;;;;;;;6.55;3.65;;;4.50;99.90;;;;;;4979792;28;20027;-68
2021/11/10 10:08:14;;;;;;;7.85;3.45;;;4.70;99.90;;;;;;4979981;28;20061;-68
2021/11/10 10:10:42;;;;;;;8.40;3.28;;;5.00;99.90;;;;;;4979673;28;20034;-68
2021/11/10 10:13:10;;;;;;;6.03;3.08;;;5.30;99.90;;;;;;4962540;28;20033;-69
2021/11/10 10:15:41;;;;;;;9.70;3.25;;;5.50;99.90;;;;;;4979676;28;20371;-68
2021/11/10 10:18:25;;;;;;;7.38;3.28;;;5.70;99.90;;;;;;4980214;28;20059;-68
2021/11/10 10:21:02;;;;;;;9.07;3.22;;;6.00;99.90;;;;;;4978649;28;20038;-68
2021/11/10 10:23:33;;;;;;;8.35;3.65;;;6.20;99.90;;;;;;4979238;28;20022;-68
2021/11/10 10:26:08;;;;;;;7.75;3.55;;;6.40;99.90;;;;;;4961361;28;20457;-69
2021/11/10 10:28:47;;;;;;;7.05;2.88;;;6.60;99.90;;;;;;4979255;28;20026;-68
2021/11/10 10:31:21;;;;;;;5.00;2.78;;;6.70;99.90;;;;;;4978968;28;20034;-68
2021/11/10 10:33:55;;;;;;;6.85;3.40;;;6.80;99.90;;;;;;4979013;28;20118;-69
2021/11/10 10:36:28;;;;;;;12.15;4.20;;;6.80;99.90;;;;;;4961285;28;20027;-69
2021/11/10 10:39:02;;;;;;;6.40;3.15;;;6.80;99.90;;;;;;4978763;28;20081;-69
2021/11/10 10:41:32;;;;;;;8.18;3.15;;;6.80;99.90;;;;;;4978670;28;20101;-68
2021/11/10 10:44:10;;;;;;;9.45;3.00;;;6.80;99.90;;;;;;4979646;28;20526;-68
2021/11/10 10:46:42;;;;;;;5.32;3.10;;;6.80;99.90;;;;;;4978878;28;20101;-68
2021/11/10 10:49:32;;;;;;;8.90;3.13;;;6.80;99.90;;;;;;4978951;28;20091;-69
2021/11/10 10:52:19;;;;;;;7.63;3.38;;;6.80;99.90;;;;;;4979469;28;20111;-68
2021/11/10 10:54:53;;;;;;;6.60;3.45;;;6.80;99.90;;;;;;4979281;28;20042;-68
2021/11/10 10:57:21;;;;;;;6.45;3.33;;;6.70;99.90;;;;;;4978832;28;20050;-69
2021/11/10 11:00:10;;;;;;;10.80;3.65;;;6.70;99.90;;;;;;4979109;28;20059;-75
2021/11/10 11:02:38;;;;;;;8.18;4.60;;;6.60;99.90;;;;;;4978182;28;20323;-71
2021/11/10 11:05:06;;;;;;;6.38;3.92;;;6.60;99.90;;;;;;4960608;28;20364;-71
2021/11/10 11:07:36;;;;;;;9.40;3.88;;;6.60;99.90;;;;;;4978292;28;20106;-71
2021/11/10 11:10:07;;;;;;;7.55;3.65;;;6.70;99.90;;;;;;4977979;28;20494;-68
2021/11/10 11:12:50;;;;;;;12.25;4.57;;;6.70;99.90;;;;;;4978312;28;20106;-68
2021/11/10 11:15:35;;;;;;;10.30;4.03;;;6.80;99.90;;;;;;4977669;28;20031;-68
2021/11/10 11:18:04;;;;;;;;;;;7.00;99.90;;;;;;4978574;28;20023;-68
2021/11/10 11:20:34;;;;;;;10.25;3.78;;;7.10;99.90;;;;;;4977684;28;19956;-68
2021/11/10 11:23:04;;;;;;;14.55;3.53;;;7.30;99.90;;;;;;4960570;28;20349;-68
2021/11/10 11:25:36;;;;;;;6.97;3.08;;;7.50;99.90;;;;;;4978167;28;20058;-68
2021/11/10 11:28:15;;;;;;;5.82;3.85;;;7.60;99.90;;;;;;4978606;28;20031;-68
2021/11/10 11:30:52;;;;;;;5.93;2.75;;;7.80;99.90;;;;;;4978519;28;20024;-68
2021/11/10 11:33:21;;;;;;;7.43;3.40;;;8.00;99.90;;;;;;4978772;28;20301;-68
2021/11/10 11:35:57;;;;;;;6.40;2.25;;;8.20;99.90;;;;;;4978415;28;20419;-68
2021/11/10 11:38:29;;;;;;;6.75;3.03;;;8.30;99.90;;;;;;4979048;28;20078;-68
2021/11/10 11:41:01;;;;;;;8.10;2.60;;;8.40;99.90;;;;;;4978985;28;20102;-68
2021/11/10 11:43:31;;;;;;;10.32;3.40;;;8.50;99.90;;;;;;4978577;28;20030;-68
2021/11/10 11:45:59;;;;;;;9.45;2.95;;;8.50;99.90;;;;;;4977560;28;20046;-69
2021/11/10 11:48:27;;;;;;;6.75;3.40;;;8.60;99.90;;;;;;4977409;28;20027;-68
2021/11/10 11:51:03;;;;;;;11.32;3.60;;;8.60;99.90;;;;;;4977991;28;20023;-68
2021/11/10 11:53:35;;;;;;;6.55;3.05;;;8.60;99.90;;;;;;4977538;28;20019;-68
2021/11/10 11:56:08;;;;;;;6.18;3.28;;;8.50;99.90;;;;;;4960146;28;20031;-69
2021/11/10 11:58:51;;;;;;;10.10;3.40;;;8.50;99.90;;;;;;4977586;28;20304;-68
2021/11/10 12:01:25;;;;;;;8.02;3.08;;;8.50;99.90;;;;;;4963700;28;20086;-69
2021/11/10 12:03:57;;;;;;;10.85;3.60;;;8.40;99.90;;;;;;4981242;28;20446;-69
2021/11/10 12:06:26;;;;;;;8.02;3.50;;;8.40;99.90;;;;;;4980990;28;20042;-69
2021/11/10 12:09:04;;;;;;;6.70;3.22;;;8.30;99.90;;;;;;4964553;28;20027;-68
2021/11/10 12:11:41;;;;;;;9.80;3.65;;;8.20;99.90;;;;;;4981975;28;20069;-68
2021/11/10 12:14:20;;;;;;;7.28;3.20;;;8.20;99.90;;;;;;4982047;28;20027;-68
2021/11/10 12:17:04;;;;;;;8.05;3.53;;;8.20;99.90;;;;;;4981833;28;20057;-68
2021/11/10 12:20:04;;;;;;;10.57;3.40;;;8.20;99.90;;;;;;4964584;28;20026;-68
2021/11/10 12:22:36;;;;;;;7.57;3.95;;;8.20;99.90;;;;;;4981565;28;20030;-68
2021/11/10 12:25:14;;;;;;;8.70;4.10;;;8.30;99.90;;;;;;4981635;28;20323;-68
2021/11/10 12:27:42;;;;;;;6.20;3.42;;;8.30;99.90;;;;;;4981324;28;20082;-68
2021/11/10 12:30:16;;;;;;;7.43;2.80;;;8.40;99.90;;;;;;4980934;28;20029;-69
2021/11/10 12:32:53;;;;;;;7.55;3.55;;;8.40;99.90;;;;;;4963487;28;20027;-68
2021/11/10 12:35:38;;;;;;;8.02;3.80;;;8.50;99.90;;;;;;4980591;28;20435;-69
2021/11/10 12:38:23;;;;;;;9.07;3.05;;;8.50;99.90;;;;;;4980509;28;20027;-68
2021/11/10 12:40:58;;;;;;;7.75;4.13;;;8.60;99.90;;;;;;4980491;28;20073;-69
2021/11/10 12:43:27;;;;;;;8.35;3.33;;;8.70;99.90;;;;;;4980592;28;20026;-68
2021/11/10 12:46:05;;;;;;;7.15;3.50;;;8.70;99.90;;;;;;4979946;28;20101;-68
2021/11/10 12:48:43;;;;;;;8.38;3.42;;;8.80;99.90;;;;;;4980757;28;20091;-68
2021/11/10 12:51:44;;;;;;;10.00;4.82;;;8.80;99.90;;;;;;4980888;28;20101;-68
2021/11/10 12:54:25;;;;;;;8.75;3.70;;;8.90;99.90;;;;;;4964579;28;20038;-69
2021/11/10 12:56:55;;;;;;;8.43;3.22;;;8.90;99.90;;;;;;4981631;28;20026;-68
2021/11/10 12:59:30;;;;;;;5.85;3.03;;;9.00;99.90;;;;;;4981043;28;20030;-68
2021/11/10 13:02:01;;;;;;;7.07;3.38;;;8.90;99.90;;;;;;4981030;28;20026;-69
2021/11/10 13:04:33;;;;;;;8.38;4.00;;;9.00;99.90;;;;;;4981561;28;20030;-68